Westbury, Virginia
Current Conditions -  °F | °C
As of 10:54 PM on Saturday 20 Dec 2014 (Local Time) from KOFP Reporting Station
Overcast Overcast  
Wind Chill: 33°   Ceiling: 8500
Heat Index: 33°   Visibility: 10mi
Dew Point: 26°   Wind: 0mph
Humidity: 75%   Direction: NA
Pressure: 30.32"   Gusts: NA
Location:  37.5871°N, 77.5706°W
Report Text: KOFP 210354Z AUTO 00000KT 10SM FEW065 OVC085 01/M03 A3032 RMK AO2 SLP267 T00061033
Loading
Personal Weather Stations






























Interactive Weather Map New forecast layout! Learn more

10-Day Weather Forecast

Advertisements
Track Severe Weather on mobile